KADG/ADG METAR and TAF weather

Enter ICAO airport designator
Station Type Date Time Source
KADG METAR 2021/09/16 10:53 UTC NOAA

KADG 161053Z AUTO 03003KT 10SM CLR 11/11 A3016 RMK AO2 SLP213 T01110106


Station Type Date Time Source
KADG Decoded METAR 2021/09/16 10:53 UTC NOAA

ADRIAN LENAWEE COUNTY AIRPORT, MI, United States (KADG) 41-52N 84-05W 241M
Sep 16, 2021 - 06:53 AM EDT / 2021.09.16 1053 UTC
Wind: from the NNE (030 degrees) at 3 MPH (3 KT):0
Visibility: 10 mile(s):0
Sky conditions: clear
Temperature: 52.0 F (11.1 C)
Dew Point: 51.1 F (10.6 C)
Relative Humidity: 96%
Pressure (altimeter): 30.16 in. Hg (1021 hPa)
ob: KADG 161053Z AUTO 03003KT 10SM CLR 11/11 A3016 RMK AO2 SLP213 T01110106
cycle: 11

Station Type Date Time Source
KADG TAF UTC NOAA

Error!

Example: see airport list